Aviation Digital Data Service (ADDS)

Output produced by METARs form (1228 UTC 18 December 2014)
found at http://aviationweather.gov/adds/metars/
 
KDAG 181150Z AUTO 25006KT 10SM FEW110 03/01 A3011 RMK AO2 SLP194 70010 T00330006 10072 20033 51003
KDAG 181120Z 1812/1912 31007KT P6SM SCT200 
     FM181500 28005KT P6SM SCT100
       
KEDW 181158Z AUTO 24001KT 10SM BKN080 OVC090 03/02 A3009 RMK AO2 SLP193 70012 T00330015 10075 20017 50004
TAF KEDW 1810/1916 VRB06KT 9999 SCT100 BKN150 QNH3008INS 
     BECMG 1818/1819 VRB06KT 9999 SCT100 SCT180 QNH3015INS 
     BECMG 1908/1909 VRB06KT 9999 BKN180 QNH3018INS TX12/1822Z TN01/1813Z
       
KVCV 181215Z AUTO 16005KT 7SM 02/01 A3010 RMK AO2
KONT 181153Z 00000KT 10SM FEW038 BKN095 10/07 A3012 RMK AO2 SLP198 70042 T01000067 10122 20089 51004
KONT 181138Z 1812/1918 VRB04KT P6SM SCT030 BKN080 
     FM181900 26007KT P6SM SCT040 SCT090 
     FM190300 VRB04KT P6SM SCT030
       
KNID 181156Z AUTO 20004KT 10SM CLR 01/00 A3010 RMK AO2 SLP201 70001 T00110000 10061 20011 53006 $
TAF KNID 1723/1823 VRB05KT 9999 FEW020 SCT055 BKN250 QNH2996INS 
     BECMG 1801/1803 24006KT 9999 SCT055 BKN250 QNH3000INS 
     BECMG 1819/1821 21006KT 9999 FEW055 BKN120 BKN220 QNH3014INS T02/1813Z T12/1822Z LAST NO AMD AFT 1806/ NEXT 1815
       
KSNA 181153Z AUTO 00000KT 10SM OVC090 12/08 A3011 RMK AO2 SLP196 70005 T01220078 10150 20117 50003 TSNO
KSNA 181138Z 1812/1912 VRB04KT P6SM SCT030 BKN080 
     FM181800 22008KT P6SM SCT040 SCT080 
     FM190100 VRB04KT P6SM SCT030 
     TEMPO 1908/1912 BKN030
       
KSAN 181151Z 00000KT 10SM FEW035 SCT050 BKN065 12/07 A3015 RMK AO2 SLP209 70040 T01170072 10144 20117 51005
KSAN 181138Z 1812/1918 VRB03KT P6SM VCSH SCT030 BKN050 
     FM181900 29009KT P6SM SCT035 SCT080 
     FM190100 VRB04KT P6SM SCT030 
     TEMPO 1906/1910 BKN030 
     FM191500 VRB04KT P6SM SCT030
       
KNXP 181156Z AUTO 27006KT 10SM CLR 06/02 A3017 RMK AO2 SLP201 70004 T00560022 10094 20056 50002 $
TAF KNXP 1809/1909 VRB05KT 9999 SCT040 SCT150 BKN180 620402 610609 641509 551805 532305 572803 533109 QNH3013INS 
     BECMG 1815/1817 33008KT 9999 SCT040 BKN100 600000 500000 QNH3018INS 
     BECMG 1905/1907 VRB05KT 9999 SCT060 BKN200 QNH3021INS AUTOMATED SENSOR METWATCH 1809 TIL 1816 T04/1812Z T14/1822Z
       
KPSP 181153Z 00000KT 10SM CLR 11/07 A3011 RMK AO2 SLP197 70012 T01060067 10133 20100 58001
KPSP 181138Z 1812/1912 32005KT P6SM SCT080
       
KLAX 181153Z 00000KT 10SM FEW090 SCT200 11/07 A3012 RMK AO2 SLP198 70001 T01060067 10139 20106 51004 $
KLAX 181130Z 1812/1918 VRB03KT P6SM BKN080 
     FM181400 VRB03KT P6SM VCSH SCT035 BKN050 
     FM182000 27009KT P6SM SCT035 SCT050 
     FM190300 VRB03KT P6SM SCT025 SCT050 
     FM191000 VRB03KT 5SM BR SCT025 SCT050 
     FM191400 VRB03KT P6SM SCT025 SCT050
       
KCNO 181158Z AUTO 00000KT 3SM BR OVC095 07/07 A3014 RMK AO2 T00720067
KSMO 181151Z AUTO 00000KT 10SM CLR 11/06 A3012 RMK AO2 SLP199 T01060061 10122 20106 51004
KLGB 181153Z 00000KT 8SM FEW085 OVC100 10/08 A3012 RMK AO2 SLP198 70018 T01000078 10128 20100 51004
KLGB 181130Z 1812/1912 VRB03KT P6SM BKN080 
     FM181400 VRB03KT P6SM VCSH SCT035 BKN050 
     FM182000 20006KT P6SM SCT035 SCT050 
     FM190200 VRB03KT P6SM SCT025 SCT050 
     FM191000 VRB03KT 5SM BR SCT025 SCT050
       
KVNY 181151Z AUTO 02003KT 10SM FEW100 07/06 A3011 RMK AO2 SLP196 T00720056 10111 20072 50003
KVNY 181130Z 1812/1912 VRB03KT P6SM BKN100 
     FM181400 VRB03KT P6SM VCSH SCT035 BKN070 
     FM182000 16006KT P6SM SCT025 SCT050 
     FM190200 VRB03KT P6SM SCT025 SCT050
       
KBUR 181153Z 00000KT 10SM FEW110 08/05 A3011 RMK AO2 SLP191 T00780050 10100 20078 51006 $
KBUR 181130Z 1812/1912 VRB03KT P6SM SCT100 
     FM181400 VRB03KT P6SM VCSH SCT035 BKN070 
     FM182000 19006KT P6SM SCT025 SCT050 
     FM190200 VRB03KT P6SM SCT025 SCT050
       
KBFL 181154Z AUTO 13005KT 10SM FEW075 BKN090 07/04 A3012 RMK AO2 SLP199 T00720044 10094 20067 56005
KBFL 181134Z 1812/1912 VRB03KT P6SM BKN070 
     FM182300 34004KT P6SM BKN250 
     FM190300 VRB03KT 4SM HZ BKN250
       
KPMD 181153Z AUTO VRB03KT 10SM BKN070 03/01 A3010 RMK AO2 SLP195 70005 T00330011 10061 20017 50002
KPMD 181130Z 1812/1912 VRB03KT P6SM BKN080 
     FM182200 30008KT P6SM SCT025 SCT050 
     FM190600 VRB03KT P6SM SCT050
       
KOXR 181151Z AUTO 04008KT 10SM OVC060 11/05 A3012 RMK AO2 SLP199 T01110050 10117 20100 51005
KOXR 181130Z 1812/1912 VRB03KT P6SM VCSH SCT035 BKN070 
     FM182000 24006KT P6SM SCT025 SCT050 
     FM190200 VRB03KT P6SM SCT025 BKN050
       
KWJF 181156Z 31003KT 10SM FEW085 BKN110 03/01 A3011 RMK AO2 SLP205 70009 T00330006 10061 20028 50002
KWJF 181130Z 1812/1912 VRB03KT P6SM BKN080 
     FM182200 30008KT P6SM SCT025 SCT050 
     FM190600 VRB03KT P6SM SCT050
       
KCMA 181155Z 00000KT 10SM OVC070 09/07 A3011 RMK AO2 SLP207 T00940072 10106 20083 50003
KFAT 181153Z 00000KT 10SM SCT075 BKN090 09/07 A3014 RMK AO2 SLP205 70007 T00890072 10100 20089 56001
KFAT 181134Z 1812/1912 13006KT P6SM BKN030 OVC050 
     FM181800 12003KT 4SM HZ SCT050 BKN250 
     FM190000 VRB03KT 5SM HZ BKN250 
     FM190600 VRB03KT 2SM BR SCT020 BKN250
       
KEED 181213Z AUTO 00000KT 10SM BKN023 BKN032 OVC080 10/08 A3010 RMK AO2 T01000078
KEED 181225Z 1812/1912 VRB03KT P6SM VCSH SCT030 OVC080 
     TEMPO 1812/1815 BKN025 OVC080 
     FM181500 VRB04KT P6SM FEW060 SCT100 
     FM190200 27005KT P6SM SCT100
       
KLSV 181218Z AUTO 07008KT 10SM BKN049 OVC090 09/07 A3010 RMK AO2 $
TAF KLSV 1809/1915 03009KT 9999 OVC050 QNH3005INS 
     BECMG 1820/1821 09009KT 9999 FEW120 QNH3012INS TX11/1823Z TN06/1814Z
       
KLAS 181156Z 21007KT 10SM FEW022 BKN100 BKN150 08/05 A3006 RMK AO2 SLP177 MTNS OBSCD DSNT SW-NW T00780050 10100 20078 51005 $
KLAS 181120Z 1812/1912 20006KT P6SM FEW025 OVC080 
     FM181500 VRB04KT P6SM SCT060 BKN100 
     FM182000 VRB04KT P6SM FEW060 SCT100 
     FM190200 21004KT P6SM FEW080 SCT250
       
KHII 181215Z AUTO 35003KT 10SM FEW065 BKN075 OVC120 10/08 A3010 RMK AO2
KIFP 181215Z AUTO 00000KT 10SM OVC030 10/09 A3013 RMK AO2